Time;durP1;ratioP1;P1;durP2;ratioP2;P2;SDS_P1;SDS_P2;PMS_P1;PMS_P2;Temp;Humidity;BMP_temperature;BMP_pressure;BME280_temperature;BME280_humidity;BME280_pressure;Samples;Min_cycle;Max_cycle;Signal;HPM_P1;HPM_P2
2022/12/09 00:02:26;;;;;;;36.67;21.55;;;-2.30;99.90;;;;;;4863095;29;20049;-64
2022/12/09 00:04:53;;;;;;;30.92;19.15;;;-2.30;99.90;;;;;;4863061;29;20057;-64
2022/12/09 00:07:20;;;;;;;28.88;18.05;;;-2.30;99.90;;;;;;4861158;29;20102;-63
2022/12/09 00:09:47;;;;;;;25.00;17.15;;;-2.40;99.90;;;;;;4862232;29;20069;-65
2022/12/09 00:12:13;;;;;;;27.52;16.02;;;-2.40;99.90;;;;;;4862238;29;20482;-64
2022/12/09 00:14:40;;;;;;;26.20;15.10;;;-2.40;99.90;;;;;;4861143;29;20049;-64
2022/12/09 00:17:07;;;;;;;26.98;16.08;;;-2.40;99.90;;;;;;4862680;29;20049;-64
2022/12/09 00:19:34;;;;;;;28.17;15.65;;;-2.40;99.90;;;;;;4861538;29;20045;-65
2022/12/09 00:22:01;;;;;;;28.45;17.08;;;-2.40;99.90;;;;;;4862097;29;20406;-64
2022/12/09 00:24:28;;;;;;;27.80;15.73;;;-2.40;99.90;;;;;;4861337;29;20050;-64
2022/12/09 00:26:55;;;;;;;27.52;15.90;;;-2.40;99.90;;;;;;4862077;29;20046;-65
2022/12/09 00:29:22;;;;;;;23.40;15.07;;;-2.40;99.90;;;;;;4857703;29;20053;-64
2022/12/09 00:31:49;;;;;;;24.15;16.10;;;-2.40;99.90;;;;;;4849640;29;20065;-65
2022/12/09 00:34:15;;;;;;;29.70;16.13;;;-2.50;99.90;;;;;;4843897;29;20069;-62
2022/12/09 00:36:42;;;;;;;22.00;14.52;;;-2.40;99.90;;;;;;4861977;29;20081;-64
2022/12/09 00:39:11;;;;;;;27.30;16.55;;;-2.50;99.90;;;;;;4860649;29;20060;-64
2022/12/09 00:41:38;;;;;;;26.90;14.50;;;-2.40;99.90;;;;;;4860905;29;20093;-64
2022/12/09 00:44:04;;;;;;;27.35;15.48;;;-2.50;99.90;;;;;;4860497;29;20065;-63
2022/12/09 00:46:31;;;;;;;27.25;15.18;;;-2.50;99.90;;;;;;4860317;29;20049;-64
2022/12/09 00:48:58;;;;;;;24.67;14.70;;;-2.40;99.90;;;;;;4861655;29;20371;-64
2022/12/09 00:51:25;;;;;;;31.67;16.40;;;-2.50;99.90;;;;;;4860660;29;20054;-64
2022/12/09 00:53:54;;;;;;;22.52;15.68;;;-2.40;99.90;;;;;;4861705;29;20699;-64
2022/12/09 00:56:21;;;;;;;25.33;15.40;;;-2.40;99.90;;;;;;4860271;29;20057;-65
2022/12/09 00:58:48;;;;;;;26.27;14.88;;;-2.30;99.90;;;;;;4861970;29;20089;-65
2022/12/09 01:01:15;;;;;;;25.30;15.43;;;-2.20;99.90;;;;;;4860380;29;20053;-65
2022/12/09 01:03:42;;;;;;;31.77;15.98;;;-2.20;99.90;;;;;;4860904;29;20080;-65
2022/12/09 01:06:09;;;;;;;24.08;13.63;;;-2.10;99.90;;;;;;4861748;29;20401;-65
2022/12/09 01:08:36;;;;;;;26.63;14.27;;;-2.00;99.90;;;;;;4861446;29;20046;-65
2022/12/09 01:11:05;;;;;;;23.63;13.60;;;-2.00;99.90;;;;;;4860509;29;20145;-64
2022/12/09 01:13:32;;;;;;;23.83;13.75;;;-1.90;99.90;;;;;;4859810;29;20045;-65
2022/12/09 01:15:58;;;;;;;22.38;14.27;;;-1.90;99.90;;;;;;4861360;29;20501;-64
2022/12/09 01:18:25;;;;;;;26.67;14.27;;;-1.80;99.90;;;;;;4860017;29;20088;-64
2022/12/09 01:20:53;;;;;;;19.25;13.35;;;-1.80;99.90;;;;;;4861546;29;20053;-65
2022/12/09 01:23:20;;;;;;;25.73;14.02;;;-1.80;99.90;;;;;;4859854;29;20049;-65
2022/12/09 01:25:47;;;;;;;20.80;13.82;;;-1.70;99.90;;;;;;4861082;29;20052;-65
2022/12/09 01:28:14;;;;;;;24.33;13.13;;;-1.70;99.90;;;;;;4859475;29;20077;-65
2022/12/09 01:30:40;;;;;;;20.27;13.57;;;-1.70;99.90;;;;;;4861693;29;20478;-65
2022/12/09 01:33:07;;;;;;;23.73;13.85;;;-1.70;99.90;;;;;;4861042;29;20046;-65
2022/12/09 01:35:34;;;;;;;22.92;13.32;;;-1.70;99.90;;;;;;4859683;29;20052;-64
2022/12/09 01:38:01;;;;;;;23.50;15.00;;;-1.80;99.90;;;;;;4860980;29;20049;-64
2022/12/09 01:40:28;;;;;;;24.75;15.02;;;-1.80;99.90;;;;;;4875426;29;20109;-65
2022/12/09 01:42:54;;;;;;;20.65;14.68;;;-1.90;99.90;;;;;;4849370;29;20070;-65
2022/12/09 01:45:22;;;;;;;27.10;15.30;;;-1.90;99.90;;;;;;4841459;29;20049;-65
2022/12/09 01:47:49;;;;;;;22.23;13.50;;;-1.90;99.90;;;;;;4841135;29;20046;-65
2022/12/09 01:50:16;;;;;;;25.05;14.05;;;-2.00;99.90;;;;;;4841136;29;20046;-65
2022/12/09 01:52:43;;;;;;;23.27;15.10;;;-2.00;99.90;;;;;;4841729;29;20115;-64
2022/12/09 01:55:10;;;;;;;22.58;13.77;;;-2.00;99.90;;;;;;4841085;29;20050;-63
2022/12/09 01:57:37;;;;;;;23.50;13.32;;;-2.10;99.90;;;;;;4841259;29;20052;-63
2022/12/09 02:00:04;;;;;;;23.77;14.25;;;-2.10;99.90;;;;;;4840783;29;20057;-64
2022/12/09 02:02:41;;;;;;;22.08;13.68;;;-2.10;99.90;;;;;;4842403;29;20053;-64
2022/12/09 02:05:08;;;;;;;21.52;14.27;;;-2.20;99.90;;;;;;4842074;29;20050;-65
2022/12/09 02:07:38;;;;;;;23.92;14.25;;;-2.20;99.90;;;;;;4841062;29;20523;-64
2022/12/09 02:10:05;;;;;;;25.08;14.10;;;-2.20;99.90;;;;;;4841402;29;20046;-64
2022/12/09 02:12:38;;;;;;;23.10;15.32;;;-2.20;99.90;;;;;;4849637;29;20042;-64
2022/12/09 02:15:05;;;;;;;23.40;15.23;;;-2.20;99.90;;;;;;4859465;29;20054;-64
2022/12/09 02:17:33;;;;;;;26.13;15.25;;;-2.20;99.90;;;;;;4872279;29;20447;-64
2022/12/09 02:20:01;;;;;;;30.35;15.45;;;-2.30;99.90;;;;;;4859351;29;20050;-64
2022/12/09 02:22:29;;;;;;;23.98;14.93;;;-2.30;99.90;;;;;;4860901;29;20493;-66
2022/12/09 02:24:56;;;;;;;28.30;14.45;;;-2.30;99.90;;;;;;4878886;29;20097;-64
2022/12/09 02:27:23;;;;;;;28.88;14.88;;;-2.30;99.90;;;;;;4861040;29;20057;-64
2022/12/09 02:29:50;;;;;;;27.30;15.45;;;-2.30;99.90;;;;;;4844726;29;20054;-64
2022/12/09 02:32:17;;;;;;;27.48;15.43;;;-2.30;99.90;;;;;;4844585;29;20053;-64
2022/12/09 02:34:44;;;;;;;25.45;15.65;;;-2.30;99.90;;;;;;4844669;29;20061;-64
2022/12/09 02:37:12;;;;;;;26.67;16.40;;;-2.30;99.90;;;;;;4852696;29;20118;-64
2022/12/09 02:39:43;;;;;;;25.63;15.73;;;-2.40;99.90;;;;;;4844545;29;20114;-63
2022/12/09 02:42:10;;;;;;;22.67;15.18;;;-2.40;99.90;;;;;;4844924;29;20053;-64
2022/12/09 02:44:38;;;;;;;24.52;14.68;;;-2.40;99.90;;;;;;4844234;29;20064;-64
2022/12/09 02:47:07;;;;;;;23.52;13.77;;;-2.40;99.90;;;;;;4844657;29;20071;-64
2022/12/09 02:49:34;;;;;;;25.67;14.13;;;-2.40;99.90;;;;;;4862712;29;20046;-64
2022/12/09 02:52:01;;;;;;;24.92;14.73;;;-2.40;99.90;;;;;;4864515;29;20037;-64
2022/12/09 02:54:29;;;;;;;23.58;14.50;;;-2.40;99.90;;;;;;4848376;29;20126;-64
2022/12/09 02:56:56;;;;;;;25.42;13.82;;;-2.40;99.90;;;;;;4861661;29;20060;-64
2022/12/09 02:59:26;;;;;;;23.70;13.85;;;-2.30;99.90;;;;;;4862030;29;20462;-63
2022/12/09 03:01:53;;;;;;;24.05;13.73;;;-2.20;99.90;;;;;;4864373;29;20403;-63
2022/12/09 03:04:20;;;;;;;24.55;14.35;;;-2.20;99.90;;;;;;4864182;29;20474;-64
2022/12/09 03:06:47;;;;;;;24.73;14.32;;;-2.20;99.90;;;;;;4863722;29;20046;-64
2022/12/09 03:09:14;;;;;;;23.27;13.98;;;-2.10;99.90;;;;;;4861815;29;20074;-63
2022/12/09 03:11:41;;;;;;;22.23;13.80;;;-2.10;99.90;;;;;;4863550;29;20076;-63
2022/12/09 03:14:08;;;;;;;23.85;13.05;;;-2.10;99.90;;;;;;4858593;29;20451;-63
2022/12/09 03:16:35;;;;;;;26.75;14.63;;;-2.00;99.90;;;;;;4845275;29;20042;-64
2022/12/09 03:19:03;;;;;;;25.25;14.93;;;-2.00;99.90;;;;;;4858866;29;20450;-63
2022/12/09 03:21:30;;;;;;;26.45;14.63;;;-1.90;99.90;;;;;;4863670;29;20148;-63
2022/12/09 03:23:56;;;;;;;24.88;14.68;;;-1.90;99.90;;;;;;4863634;29;20576;-63
2022/12/09 03:26:23;;;;;;;22.80;13.68;;;-1.80;99.90;;;;;;4861681;29;20145;-64
2022/12/09 03:28:52;;;;;;;21.10;13.10;;;-1.80;99.90;;;;;;4852508;29;20030;-63
2022/12/09 03:31:18;;;;;;;21.90;13.48;;;-1.80;99.90;;;;;;4845403;29;20133;-63
2022/12/09 03:33:45;;;;;;;25.67;14.27;;;-1.80;99.90;;;;;;4853135;29;20049;-64
2022/12/09 03:36:12;;;;;;;24.00;13.65;;;-1.70;99.90;;;;;;4862802;29;20429;-63
2022/12/09 03:38:39;;;;;;;25.23;14.30;;;-1.70;99.90;;;;;;4863277;29;20457;-62
2022/12/09 03:41:06;;;;;;;21.88;13.85;;;-1.70;99.90;;;;;;4863339;29;20077;-63
2022/12/09 03:43:33;;;;;;;24.98;14.23;;;-1.60;99.90;;;;;;4863057;29;20056;-64
2022/12/09 03:46:00;;;;;;;23.25;14.65;;;-1.60;99.90;;;;;;4862070;29;20042;-64
2022/12/09 03:48:27;;;;;;;24.05;14.20;;;-1.60;99.90;;;;;;4863133;29;20046;-64
2022/12/09 03:50:54;;;;;;;22.80;14.25;;;-1.50;99.90;;;;;;4862276;29;20832;-64
2022/12/09 03:53:20;;;;;;;23.65;13.75;;;-1.50;99.90;;;;;;4860045;29;20526;-63
2022/12/09 03:55:47;;;;;;;20.83;13.88;;;-1.50;99.90;;;;;;4843998;29;20050;-64
2022/12/09 03:58:14;;;;;;;24.65;13.98;;;-1.40;99.90;;;;;;4851452;29;20441;-64
2022/12/09 04:00:41;;;;;;;24.13;13.63;;;-1.40;99.90;;;;;;4862997;29;20102;-63
2022/12/09 04:03:08;;;;;;;20.92;13.25;;;-1.40;99.90;;;;;;4862412;29;20045;-64
2022/12/09 04:05:36;;;;;;;21.88;13.57;;;-1.30;99.90;;;;;;4860920;29;20569;-64
2022/12/09 04:08:03;;;;;;;19.98;13.50;;;-1.30;99.90;;;;;;4860761;29;20417;-64
2022/12/09 04:10:30;;;;;;;23.88;14.57;;;-1.30;99.90;;;;;;4844554;29;20042;-63
2022/12/09 04:12:57;;;;;;;23.45;14.07;;;-1.30;99.90;;;;;;4861029;29;20461;-63
2022/12/09 04:15:24;;;;;;;20.02;13.77;;;-1.20;99.90;;;;;;4855694;29;20050;-63
2022/12/09 04:17:51;;;;;;;20.20;13.55;;;-1.10;99.90;;;;;;4862469;29;20128;-64
2022/12/09 04:20:18;;;;;;;22.75;13.32;;;-1.10;99.90;;;;;;4850541;29;20050;-63
2022/12/09 04:22:45;;;;;;;23.08;13.60;;;-1.10;99.90;;;;;;4843687;29;20053;-64
2022/12/09 04:25:11;;;;;;;24.98;13.88;;;-1.00;99.90;;;;;;4844304;29;20050;-63
2022/12/09 04:27:38;;;;;;;20.73;13.65;;;-1.00;99.90;;;;;;4849091;29;20040;-64
2022/12/09 04:30:05;;;;;;;24.52;12.95;;;-0.90;99.90;;;;;;4862768;29;20447;-65
2022/12/09 04:32:33;;;;;;;22.60;13.82;;;-0.90;99.90;;;;;;4862410;29;20053;-65
2022/12/09 04:35:00;;;;;;;18.92;12.70;;;-0.90;99.90;;;;;;4861230;29;20049;-64
2022/12/09 04:37:27;;;;;;;29.25;14.65;;;-0.90;99.90;;;;;;4862754;29;20045;-63
2022/12/09 04:39:53;;;;;;;25.33;15.15;;;-0.80;99.90;;;;;;4862120;29;20057;-63
2022/12/09 04:42:21;;;;;;;21.75;13.55;;;-0.80;99.90;;;;;;4862192;29;20049;-64
2022/12/09 04:44:48;;;;;;;22.13;14.20;;;-0.80;99.90;;;;;;4862513;29;20106;-63
2022/12/09 04:47:15;;;;;;;23.20;14.48;;;-0.80;99.90;;;;;;4862468;29;20037;-66
2022/12/09 04:49:42;;;;;;;21.10;14.45;;;-0.70;99.90;;;;;;4846818;29;20068;-67
2022/12/09 04:52:09;;;;;;;21.52;14.40;;;-0.70;99.90;;;;;;4843548;29;20490;-64
2022/12/09 04:54:36;;;;;;;21.40;14.23;;;-0.70;99.90;;;;;;4850452;29;20099;-63
2022/12/09 04:57:03;;;;;;;26.27;14.23;;;-0.60;99.90;;;;;;4844432;29;20231;-64
2022/12/09 04:59:30;;;;;;;24.40;14.40;;;-0.60;99.90;;;;;;4862654;29;20208;-63
2022/12/09 05:01:57;;;;;;;22.15;13.90;;;-0.60;99.90;;;;;;4861910;29;20128;-64
2022/12/09 05:04:24;;;;;;;21.10;14.55;;;-0.60;99.90;;;;;;4846604;29;20056;-64
2022/12/09 05:06:52;;;;;;;21.02;14.07;;;-0.50;99.90;;;;;;4846968;29;20042;-63
2022/12/09 05:09:19;;;;;;;21.90;14.27;;;-0.50;99.90;;;;;;4862333;29;20385;-64
2022/12/09 05:11:46;;;;;;;23.95;14.25;;;-0.50;99.90;;;;;;4862344;29;20093;-64
2022/12/09 05:14:13;;;;;;;22.92;14.25;;;-0.50;99.90;;;;;;4861419;29;20120;-63
2022/12/09 05:16:40;;;;;;;20.17;13.55;;;-0.50;99.90;;;;;;4851353;29;20130;-64
2022/12/09 05:19:07;;;;;;;20.95;13.88;;;-0.50;99.90;;;;;;4843580;29;20112;-64
2022/12/09 05:21:35;;;;;;;28.08;14.43;;;-0.50;99.90;;;;;;4843381;29;20070;-64
2022/12/09 05:24:01;;;;;;;25.45;14.68;;;-0.40;99.90;;;;;;4843348;29;20066;-64
2022/12/09 05:26:28;;;;;;;22.63;14.25;;;-0.40;99.90;;;;;;4850675;29;20047;-63
2022/12/09 05:28:55;;;;;;;22.30;12.48;;;-0.40;99.90;;;;;;4860592;29;20129;-64
2022/12/09 05:31:22;;;;;;;22.10;13.77;;;-0.40;99.90;;;;;;4861763;29;20048;-64
2022/12/09 05:33:50;;;;;;;21.83;13.10;;;-0.30;99.90;;;;;;4861669;29;20336;-63
2022/12/09 05:36:17;;;;;;;19.67;13.55;;;-0.30;99.90;;;;;;4859201;29;20068;-64
2022/12/09 05:38:46;;;;;;;19.63;12.80;;;-0.30;99.90;;;;;;4861700;29;20069;-64
2022/12/09 05:41:13;;;;;;;22.10;13.48;;;-0.30;99.90;;;;;;4859198;29;20422;-64
2022/12/09 05:43:40;;;;;;;21.33;13.50;;;-0.30;99.90;;;;;;4848052;29;20121;-64
2022/12/09 05:46:07;;;;;;;22.73;14.05;;;-0.30;99.90;;;;;;4856535;29;20478;-63
2022/12/09 05:48:34;;;;;;;21.77;14.10;;;-0.30;99.90;;;;;;4844120;29;20057;-64
2022/12/09 05:51:01;;;;;;;24.73;13.88;;;-0.30;99.90;;;;;;4861434;29;20041;-64
2022/12/09 05:53:28;;;;;;;20.67;14.30;;;-0.30;99.90;;;;;;4859282;29;20079;-63
2022/12/09 05:55:55;;;;;;;23.50;14.98;;;-0.20;99.90;;;;;;4842474;29;20453;-64
2022/12/09 05:58:23;;;;;;;21.38;14.07;;;-0.20;99.90;;;;;;4853039;29;20498;-64
2022/12/09 06:00:50;;;;;;;18.65;13.20;;;-0.20;99.90;;;;;;4842919;29;20046;-63
2022/12/09 06:03:17;;;;;;;20.13;14.32;;;-0.10;99.90;;;;;;4849388;29;20046;-63
2022/12/09 06:05:44;;;;;;;24.35;14.32;;;-0.10;99.90;;;;;;4859879;29;20082;-63
2022/12/09 06:08:11;;;;;;;19.48;13.43;;;-0.10;99.90;;;;;;4859635;29;20041;-63
2022/12/09 06:10:38;;;;;;;21.10;14.23;;;-0.10;99.90;;;;;;4859289;29;20136;-63
2022/12/09 06:13:06;;;;;;;22.58;14.15;;;-0.10;99.90;;;;;;4854907;29;20084;-63
2022/12/09 06:15:32;;;;;;;21.95;14.45;;;-0.10;99.90;;;;;;4847391;29;20049;-64
2022/12/09 06:18:00;;;;;;;19.85;13.75;;;-0.10;99.90;;;;;;4859631;29;20077;-63
2022/12/09 06:20:27;;;;;;;21.20;13.15;;;0.00;99.90;;;;;;4860252;29;20057;-63
2022/12/09 06:22:54;;;;;;;22.30;13.93;;;0.00;99.90;;;;;;4843759;29;20102;-63
2022/12/09 06:25:21;;;;;;;20.63;13.38;;;0.00;99.90;;;;;;4854227;29;20121;-64
2022/12/09 06:27:48;;;;;;;24.67;14.85;;;0.00;99.90;;;;;;4856040;29;20042;-64
2022/12/09 06:30:15;;;;;;;22.77;15.05;;;-0.10;99.90;;;;;;4842217;29;20042;-65
2022/12/09 06:32:42;;;;;;;23.98;14.48;;;0.00;99.90;;;;;;4849051;29;20132;-63
2022/12/09 06:35:09;;;;;;;21.90;14.15;;;0.00;99.90;;;;;;4855994;29;20116;-63
2022/12/09 06:37:36;;;;;;;21.92;14.98;;;0.00;99.90;;;;;;4843539;29;20057;-64
2022/12/09 06:40:04;;;;;;;25.27;15.70;;;0.00;99.90;;;;;;4842236;29;20058;-64
2022/12/09 06:42:31;;;;;;;19.77;14.25;;;0.00;99.90;;;;;;4842216;29;20050;-64
2022/12/09 06:44:58;;;;;;;25.80;17.30;;;0.10;99.90;;;;;;4849534;29;20124;-64
2022/12/09 06:47:25;;;;;;;26.25;15.98;;;0.00;99.90;;;;;;4860477;29;20046;-65
2022/12/09 06:49:52;;;;;;;25.38;16.20;;;0.00;99.90;;;;;;4859268;29;20046;-64
2022/12/09 06:52:19;;;;;;;23.98;15.52;;;0.00;99.90;;;;;;4848190;29;20121;-64
2022/12/09 06:54:46;;;;;;;23.33;15.10;;;0.10;99.90;;;;;;4852791;29;20451;-64
2022/12/09 06:57:13;;;;;;;23.52;15.82;;;0.10;99.90;;;;;;4851295;29;20422;-64
2022/12/09 06:59:40;;;;;;;25.13;16.73;;;0.10;99.90;;;;;;4859335;29;20486;-65
2022/12/09 07:02:07;;;;;;;26.42;16.38;;;0.20;99.90;;;;;;4856942;29;20052;-64
2022/12/09 07:04:34;;;;;;;28.63;17.13;;;0.20;99.90;;;;;;4843402;29;20057;-64
2022/12/09 07:07:02;;;;;;;25.20;17.48;;;0.20;99.90;;;;;;4855008;29;20046;-64
2022/12/09 07:09:29;;;;;;;25.52;16.38;;;0.20;99.90;;;;;;4862966;29;20041;-63
2022/12/09 07:11:56;;;;;;;21.13;15.80;;;0.20;99.90;;;;;;4860650;29;20056;-64
2022/12/09 07:14:23;;;;;;;21.48;16.65;;;0.30;99.90;;;;;;4845570;29;20041;-63
2022/12/09 07:16:51;;;;;;;31.98;17.48;;;0.30;99.90;;;;;;4852842;29;20069;-64
2022/12/09 07:19:18;;;;;;;24.58;17.17;;;0.30;99.90;;;;;;4857167;29;20145;-63
2022/12/09 07:21:45;;;;;;;25.27;16.75;;;0.30;99.90;;;;;;4857368;29;20046;-64
2022/12/09 07:24:13;;;;;;;28.40;17.02;;;0.30;99.90;;;;;;4861228;29;20046;-65
2022/12/09 07:26:40;;;;;;;25.67;17.50;;;0.30;99.90;;;;;;4855637;29;20037;-64
2022/12/09 07:29:06;;;;;;;31.20;18.70;;;0.30;99.90;;;;;;4863613;29;20370;-64
2022/12/09 07:31:34;;;;;;;25.75;16.88;;;0.30;99.90;;;;;;4858528;29;20033;-64
2022/12/09 07:34:01;;;;;;;25.83;17.70;;;0.40;99.90;;;;;;4857976;29;20046;-64
2022/12/09 07:36:28;;;;;;;29.58;17.50;;;0.30;99.90;;;;;;4854956;29;20053;-64
2022/12/09 07:38:55;;;;;;;24.60;15.93;;;0.40;99.90;;;;;;4846191;29;20077;-65
2022/12/09 07:41:22;;;;;;;28.65;18.27;;;0.40;99.90;;;;;;4843753;29;20117;-65
2022/12/09 07:43:50;;;;;;;30.45;17.85;;;0.30;99.90;;;;;;4856162;29;20074;-65
2022/12/09 07:46:17;;;;;;;29.77;18.48;;;0.30;99.90;;;;;;4858768;29;20053;-65
2022/12/09 07:48:44;;;;;;;27.27;18.10;;;0.40;99.90;;;;;;4845141;29;20052;-66
2022/12/09 07:51:11;;;;;;;27.77;18.15;;;0.40;99.90;;;;;;4845450;29;20046;-64
2022/12/09 07:53:38;;;;;;;27.83;17.95;;;0.40;99.90;;;;;;4844513;29;20042;-65
2022/12/09 07:56:05;;;;;;;28.35;17.75;;;0.40;99.90;;;;;;4859932;29;20060;-64
2022/12/09 07:58:32;;;;;;;26.67;17.38;;;0.50;99.90;;;;;;4861615;29;20057;-65
2022/12/09 08:00:59;;;;;;;25.52;17.75;;;0.50;99.90;;;;;;4861100;29;20049;-65
2022/12/09 08:03:26;;;;;;;25.17;17.42;;;0.50;99.90;;;;;;4849860;29;20097;-65
2022/12/09 08:05:53;;;;;;;24.17;16.65;;;0.50;99.90;;;;;;4853004;29;20046;-64
2022/12/09 08:08:20;;;;;;;24.55;17.95;;;0.60;99.90;;;;;;4856217;29;20447;-65
2022/12/09 08:10:48;;;;;;;26.00;18.02;;;0.60;99.90;;;;;;4844350;29;20189;-65
2022/12/09 08:13:15;;;;;;;26.60;17.58;;;0.60;99.90;;;;;;4854252;29;20064;-64
2022/12/09 08:15:42;;;;;;;26.58;18.20;;;0.70;99.90;;;;;;4847837;29;20070;-64
2022/12/09 08:18:09;;;;;;;28.90;17.85;;;0.60;99.90;;;;;;4860176;29;20122;-64
2022/12/09 08:20:36;;;;;;;29.23;18.13;;;0.70;99.90;;;;;;4843403;29;20053;-64
2022/12/09 08:23:04;;;;;;;27.27;17.60;;;0.70;99.90;;;;;;4848597;29;20413;-64
2022/12/09 08:25:31;;;;;;;29.67;18.60;;;0.70;99.90;;;;;;4850699;29;20065;-62
2022/12/09 08:27:58;;;;;;;27.42;19.02;;;0.70;99.90;;;;;;4846196;29;20129;-64
2022/12/09 08:30:25;;;;;;;26.98;18.73;;;0.70;99.90;;;;;;4842835;29;20045;-66
2022/12/09 08:32:53;;;;;;;26.42;17.88;;;0.70;99.90;;;;;;4857587;29;20058;-66
2022/12/09 08:35:20;;;;;;;27.98;17.88;;;0.80;99.90;;;;;;4852878;29;20166;-67
2022/12/09 08:37:47;;;;;;;28.75;19.02;;;0.80;99.90;;;;;;4843609;29;20056;-66
2022/12/09 08:40:14;;;;;;;26.77;18.17;;;0.80;99.90;;;;;;4844058;29;20487;-66
2022/12/09 08:42:42;;;;;;;28.13;18.92;;;0.80;99.90;;;;;;4843475;29;20806;-65
2022/12/09 08:45:09;;;;;;;31.83;20.00;;;0.80;99.90;;;;;;4843517;29;20054;-65
2022/12/09 08:47:36;;;;;;;32.28;19.13;;;0.90;99.90;;;;;;4843915;29;20042;-66
2022/12/09 08:50:04;;;;;;;26.60;19.20;;;0.90;99.90;;;;;;4842161;29;20398;-64
2022/12/09 08:52:32;;;;;;;29.92;19.33;;;0.90;99.90;;;;;;4843814;29;20045;-64
2022/12/09 08:55:05;;;;;;;29.13;18.95;;;0.90;99.90;;;;;;4843979;29;20054;-63
2022/12/09 08:57:32;;;;;;;28.60;17.15;;;1.00;99.90;;;;;;4843601;29;20057;-65
2022/12/09 08:59:59;;;;;;;29.30;19.45;;;1.00;99.90;;;;;;4844593;29;20569;-63
2022/12/09 09:02:26;;;;;;;28.95;18.17;;;1.00;99.90;;;;;;4859132;29;20128;-64
2022/12/09 09:04:53;;;;;;;39.15;24.83;;;1.00;99.90;;;;;;4858823;29;20069;-64
2022/12/09 09:07:20;;;;;;;32.75;20.00;;;1.00;99.90;;;;;;4859742;29;20041;-64
2022/12/09 09:09:47;;;;;;;31.13;20.60;;;1.10;99.90;;;;;;4860586;29;20553;-64
2022/12/09 09:12:15;;;;;;;33.60;20.85;;;1.10;99.90;;;;;;4859814;29;20049;-66
2022/12/09 09:14:42;;;;;;;29.00;19.67;;;1.10;99.90;;;;;;4860519;29;20085;-64
2022/12/09 09:17:09;;;;;;;30.83;20.13;;;1.20;99.90;;;;;;4853091;29;20041;-65
2022/12/09 09:19:36;;;;;;;29.00;19.38;;;1.20;99.90;;;;;;4855480;29;20049;-65
2022/12/09 09:22:04;;;;;;;34.50;20.45;;;1.30;99.90;;;;;;4859888;29;20053;-65
2022/12/09 09:24:31;;;;;;;35.35;19.80;;;1.30;99.90;;;;;;4860337;29;20072;-66
2022/12/09 09:26:58;;;;;;;40.60;20.88;;;1.30;99.90;;;;;;4860218;29;20064;-65
2022/12/09 09:29:25;;;;;;;33.55;20.98;;;1.40;99.90;;;;;;4860044;29;20045;-64
2022/12/09 09:31:52;;;;;;;31.77;19.92;;;1.40;99.90;;;;;;4842015;29;20049;-65
2022/12/09 09:34:21;;;;;;;42.85;22.15;;;1.40;99.90;;;;;;4842573;29;20506;-66
2022/12/09 09:36:49;;;;;;;33.83;21.38;;;1.40;99.90;;;;;;4847179;29;20042;-64
2022/12/09 09:39:17;;;;;;;37.53;21.25;;;1.40;99.90;;;;;;4842758;29;20067;-65
2022/12/09 09:41:44;;;;;;;37.42;21.17;;;1.50;99.90;;;;;;4842257;29;20502;-66
2022/12/09 09:44:11;;;;;;;35.78;21.83;;;1.50;99.90;;;;;;4844234;29;20128;-65
2022/12/09 09:46:38;;;;;;;35.35;21.95;;;1.50;99.90;;;;;;4842724;29;20038;-68
2022/12/09 09:49:06;;;;;;;37.05;22.52;;;1.60;99.90;;;;;;4842811;29;20156;-65
2022/12/09 09:51:33;;;;;;;34.53;21.77;;;1.60;99.90;;;;;;4854859;29;20052;-65
2022/12/09 09:54:00;;;;;;;36.70;23.65;;;1.60;99.90;;;;;;4860225;29;20090;-65
2022/12/09 09:56:34;;;;;;;38.88;21.60;;;1.60;99.90;;;;;;4860334;29;20049;-62
2022/12/09 09:59:00;;;;;;;37.33;23.25;;;1.70;99.90;;;;;;4858867;29;20057;-64
2022/12/09 10:01:28;;;;;;;38.53;24.92;;;1.70;99.90;;;;;;4855463;29;20050;-66
2022/12/09 10:03:55;;;;;;;42.63;22.15;;;1.70;99.90;;;;;;4859453;29;20081;-64
2022/12/09 10:06:23;;;;;;;37.00;22.65;;;1.70;99.90;;;;;;4859824;29;20046;-64
2022/12/09 10:08:54;;;;;;;40.55;23.50;;;1.80;99.90;;;;;;4859711;29;20116;-65
2022/12/09 10:11:22;;;;;;;38.67;24.73;;;1.80;99.90;;;;;;4859915;29;20056;-65
2022/12/09 10:13:49;;;;;;;38.95;22.60;;;1.80;99.90;;;;;;4858930;29;20041;-65
2022/12/09 10:16:16;;;;;;;36.47;23.35;;;1.80;99.90;;;;;;4859741;29;20072;-64
2022/12/09 10:18:44;;;;;;;45.15;24.30;;;1.80;99.90;;;;;;4859695;29;20509;-64
2022/12/09 10:21:11;;;;;;;41.60;24.60;;;1.80;99.90;;;;;;4858929;29;20985;-64
2022/12/09 10:23:38;;;;;;;39.85;23.13;;;1.90;99.90;;;;;;4859681;29;20045;-64
2022/12/09 10:26:05;;;;;;;40.97;23.45;;;1.90;99.90;;;;;;4859533;29;20073;-63
2022/12/09 10:28:33;;;;;;;43.28;23.77;;;1.90;99.90;;;;;;4859456;29;20096;-63
2022/12/09 10:31:00;;;;;;;44.97;25.52;;;1.90;99.90;;;;;;4859534;29;20359;-64
2022/12/09 10:33:28;;;;;;;42.20;23.67;;;1.90;99.90;;;;;;4859303;29;20050;-66
2022/12/09 10:35:55;;;;;;;43.72;24.08;;;2.00;99.90;;;;;;4859562;29;20045;-65
2022/12/09 10:38:22;;;;;;;44.03;25.20;;;2.00;99.90;;;;;;4859662;29;20058;-64
2022/12/09 10:40:49;;;;;;;38.00;23.65;;;2.00;99.90;;;;;;4859476;29;20056;-65
2022/12/09 10:46:03;;;;;;;40.30;23.65;;;2.10;99.90;;;;;;4863108;29;20088;-66
2022/12/09 10:48:47;;;;;;;41.35;23.35;;;2.10;99.90;;;;;;4863194;29;20045;-64
2022/12/09 10:51:15;;;;;;;41.15;22.95;;;2.10;99.90;;;;;;4863243;29;20038;-66
2022/12/09 10:53:42;;;;;;;38.72;22.83;;;2.20;99.90;;;;;;4850849;29;20046;-67
2022/12/09 10:56:09;;;;;;;39.53;22.35;;;2.20;99.90;;;;;;4845153;29;20054;-66
2022/12/09 10:58:36;;;;;;;37.83;22.83;;;2.20;99.90;;;;;;4858938;29;20086;-65
2022/12/09 11:01:03;;;;;;;38.65;24.30;;;2.30;99.90;;;;;;4846471;29;20045;-66
2022/12/09 11:03:30;;;;;;;39.80;23.58;;;2.30;99.90;;;;;;4862058;29;20462;-67
2022/12/09 11:05:58;;;;;;;41.38;25.00;;;2.30;99.90;;;;;;4862685;29;20049;-66
2022/12/09 11:08:25;;;;;;;47.47;25.48;;;2.30;99.90;;;;;;4862693;29;20084;-66
2022/12/09 11:10:52;;;;;;;43.17;25.17;;;2.40;99.90;;;;;;4862788;29;20052;-67
2022/12/09 11:13:20;;;;;;;51.38;23.65;;;2.40;99.90;;;;;;4862530;29;20045;-65
2022/12/09 11:15:47;;;;;;;41.40;23.30;;;2.50;99.90;;;;;;4862530;29;20041;-66
2022/12/09 11:18:14;;;;;;;38.17;24.02;;;2.50;99.90;;;;;;4862802;29;20049;-64
2022/12/09 11:20:41;;;;;;;40.85;24.48;;;2.40;99.90;;;;;;4862549;29;20505;-64
2022/12/09 11:23:08;;;;;;;40.83;25.63;;;2.50;99.90;;;;;;4844875;29;20057;-67
2022/12/09 11:25:35;;;;;;;38.92;25.13;;;2.50;99.90;;;;;;4856748;29;20170;-65
2022/12/09 11:28:02;;;;;;;40.45;25.90;;;2.50;99.90;;;;;;4844509;29;20425;-66
2022/12/09 11:30:29;;;;;;;45.10;26.20;;;2.50;99.90;;;;;;4844658;29;20038;-65
2022/12/09 11:32:57;;;;;;;44.40;25.83;;;2.50;99.90;;;;;;4860176;29;20070;-64
2022/12/09 11:35:24;;;;;;;42.08;25.30;;;2.60;99.90;;;;;;4855222;29;20049;-66
2022/12/09 11:37:51;;;;;;;41.72;26.35;;;2.60;99.90;;;;;;4850271;29;20105;-66
2022/12/09 11:40:18;;;;;;;39.83;24.67;;;2.70;99.90;;;;;;4844084;29;20064;-64
2022/12/09 11:42:46;;;;;;;46.63;28.88;;;2.70;99.90;;;;;;4856268;29;20046;-65
2022/12/09 11:45:13;;;;;;;45.92;27.38;;;2.70;99.90;;;;;;4844370;29;20080;-67
2022/12/09 11:47:40;;;;;;;42.65;28.33;;;2.70;99.90;;;;;;4844252;29;20050;-65
2022/12/09 11:50:31;;;;;;;41.50;26.30;;;2.70;99.90;;;;;;4858449;29;20383;-66
2022/12/09 11:52:58;;;;;;;44.78;27.52;;;2.70;99.90;;;;;;4861981;29;20046;-65
2022/12/09 11:55:26;;;;;;;46.78;29.75;;;2.70;99.90;;;;;;4860720;29;20494;-65
2022/12/09 11:57:53;;;;;;;48.05;27.73;;;2.80;99.90;;;;;;4860519;29;20417;-65
2022/12/09 12:00:20;;;;;;;44.55;27.42;;;2.80;99.90;;;;;;4852520;29;20124;-65
2022/12/09 12:02:46;;;;;;;47.03;27.55;;;2.80;99.90;;;;;;4852109;29;20054;-67
2022/12/09 12:05:13;;;;;;;43.78;29.00;;;2.90;99.90;;;;;;4861617;29;20158;-66
2022/12/09 12:07:47;;;;;;;46.92;27.42;;;2.90;99.90;;;;;;4861618;29;20065;-66
2022/12/09 12:10:13;;;;;;;51.88;29.83;;;2.90;99.90;;;;;;4861644;29;20102;-66
2022/12/09 12:12:41;;;;;;;49.25;28.80;;;2.80;99.90;;;;;;4858451;29;20185;-66
2022/12/09 12:15:08;;;;;;;55.53;31.65;;;2.90;99.90;;;;;;4843595;29;20050;-67
2022/12/09 12:17:34;;;;;;;51.08;30.52;;;2.90;99.90;;;;;;4844368;29;20053;-66
2022/12/09 12:20:01;;;;;;;49.58;29.95;;;2.80;99.90;;;;;;4843886;29;20106;-66
2022/12/09 12:22:28;;;;;;;49.03;31.05;;;2.80;99.90;;;;;;4846767;29;20088;-67
2022/12/09 12:24:55;;;;;;;47.60;27.67;;;2.80;99.90;;;;;;4855213;29;20114;-66
2022/12/09 12:27:22;;;;;;;47.22;28.38;;;2.80;99.90;;;;;;4843699;29;20090;-66
2022/12/09 12:29:48;;;;;;;46.92;28.65;;;2.80;99.90;;;;;;4857977;29;20046;-66
2022/12/09 12:32:15;;;;;;;44.22;27.50;;;2.70;99.90;;;;;;4860880;29;20074;-67
2022/12/09 12:34:42;;;;;;;50.67;29.38;;;2.70;99.90;;;;;;4861502;29;20068;-66